createdAt,value
2023-04-30T00:00:09.095Z,99.99
2023-04-30T00:01:09.600Z,99.99
2023-04-30T00:02:10.378Z,99.99
2023-04-30T00:03:11.540Z,99.99
2023-04-30T00:04:11.822Z,99.99
2023-04-30T00:05:11.880Z,99.99
2023-04-30T00:06:12.476Z,99.99
2023-04-30T00:07:13.188Z,99.99
2023-04-30T00:08:13.887Z,99.99
2023-04-30T00:09:14.496Z,99.99
2023-04-30T00:10:15.231Z,99.99
2023-04-30T00:11:16.452Z,99.99
2023-04-30T00:12:17.390Z,99.99
2023-04-30T00:13:18.083Z,99.99
2023-04-30T00:14:18.821Z,99.99
2023-04-30T00:15:19.740Z,99.99
2023-04-30T00:16:20.821Z,99.99
2023-04-30T00:17:20.895Z,99.99
2023-04-30T00:18:21.470Z,99.99
2023-04-30T00:19:21.670Z,99.99
2023-04-30T00:20:22.489Z,99.99
2023-04-30T00:21:22.997Z,99.99
2023-04-30T00:22:23.667Z,99.99
2023-04-30T00:23:24.564Z,99.99
2023-04-30T00:24:25.048Z,99.99
2023-04-30T00:25:25.394Z,99.99
2023-04-30T00:26:25.861Z,99.99
2023-04-30T00:27:26.583Z,99.99
2023-04-30T00:28:27.347Z,99.99
2023-04-30T00:29:28.380Z,99.99
2023-04-30T00:30:29.082Z,99.99
2023-04-30T00:31:29.323Z,99.99
2023-04-30T00:32:30.156Z,99.99
2023-04-30T00:33:30.849Z,99.99
2023-04-30T00:34:31.347Z,99.99
2023-04-30T00:35:32.129Z,99.99
2023-04-30T00:36:32.012Z,99.99
2023-04-30T00:37:32.741Z,99.99
2023-04-30T00:38:33.037Z,99.99
2023-04-30T00:39:33.219Z,99.99
2023-04-30T00:40:34.139Z,99.99
2023-04-30T00:41:34.406Z,99.99
2023-04-30T00:42:35.116Z,99.99
2023-04-30T00:43:35.822Z,99.99
2023-04-30T00:44:36.104Z,99.99
2023-04-30T00:45:37.076Z,99.99
2023-04-30T00:46:37.885Z,99.99
2023-04-30T00:47:39.104Z,99.99
2023-04-30T00:48:39.962Z,99.99
2023-04-30T00:49:40.943Z,99.99
2023-04-30T00:50:41.352Z,99.99
2023-04-30T00:51:41.461Z,99.99
2023-04-30T00:52:42.226Z,99.99
2023-04-30T00:53:42.483Z,99.99
2023-04-30T00:54:42.786Z,99.99
2023-04-30T00:55:43.279Z,99.99
2023-04-30T00:56:44.206Z,99.99
2023-04-30T00:57:44.128Z,99.99
2023-04-30T00:58:44.622Z,99.99
2023-04-30T00:59:44.809Z,99.99
2023-04-30T01:00:45.491Z,99.99
2023-04-30T01:01:46.496Z,99.99
2023-04-30T01:02:47.567Z,99.99
2023-04-30T01:03:48.481Z,99.99
2023-04-30T01:04:49.107Z,99.99
2023-04-30T01:05:50.062Z,99.99
2023-04-30T01:06:50.435Z,99.99
2023-04-30T01:07:51.150Z,99.99
2023-04-30T01:08:51.889Z,99.99
2023-04-30T01:09:52.249Z,99.99
2023-04-30T01:10:52.321Z,99.99
2023-04-30T01:11:52.814Z,99.99
2023-04-30T01:12:53.665Z,99.99
2023-04-30T01:13:53.786Z,99.99
2023-04-30T01:14:54.699Z,99.99
2023-04-30T01:15:55.629Z,99.99
2023-04-30T01:16:56.689Z,99.99
2023-04-30T01:17:57.394Z,99.99
2023-04-30T01:18:57.880Z,99.99
2023-04-30T01:19:58.275Z,99.99
2023-04-30T01:20:58.216Z,99.99
2023-04-30T01:21:58.773Z,99.99
2023-04-30T01:22:59.710Z,99.99
2023-04-30T01:24:00.399Z,99.99
2023-04-30T01:25:00.675Z,99.99
2023-04-30T01:26:01.446Z,99.99
2023-04-30T01:27:01.727Z,99.99
2023-04-30T01:28:02.269Z,99.99
2023-04-30T01:29:02.817Z,99.99
2023-04-30T01:30:03.068Z,99.99
2023-04-30T01:31:03.669Z,99.99
2023-04-30T01:32:04.074Z,99.99
2023-04-30T01:33:05.110Z,99.99
2023-04-30T01:34:05.041Z,99.99
2023-04-30T01:35:08.304Z,99.99
2023-04-30T01:36:06.050Z,99.99
2023-04-30T01:37:06.530Z,99.99
2023-04-30T01:38:07.044Z,99.99
2023-04-30T01:39:07.324Z,99.99
2023-04-30T01:40:07.993Z,99.99
2023-04-30T01:41:08.719Z,99.99
2023-04-30T01:42:09.006Z,99.99
2023-04-30T01:43:10.048Z,99.99
2023-04-30T01:44:10.813Z,99.99
2023-04-30T01:45:11.517Z,99.99
2023-04-30T01:46:12.251Z,99.99
2023-04-30T01:47:12.996Z,99.99
2023-04-30T01:48:13.627Z,99.99
2023-04-30T01:49:13.932Z,99.99
2023-04-30T01:50:14.542Z,99.99
2023-04-30T01:51:15.676Z,99.99
2023-04-30T01:52:16.488Z,99.99
2023-04-30T01:53:17.122Z,99.99
2023-04-30T01:54:17.030Z,99.99
2023-04-30T01:55:17.781Z,99.99
2023-04-30T01:56:18.093Z,99.99
2023-04-30T01:57:18.863Z,99.99
2023-04-30T01:58:19.799Z,99.99
2023-04-30T01:59:20.518Z,99.99
2023-04-30T02:00:21.094Z,99.99
2023-04-30T02:01:21.901Z,99.99
2023-04-30T02:02:21.906Z,99.99
2023-04-30T02:03:22.125Z,99.99
2023-04-30T02:04:22.513Z,99.99
2023-04-30T02:05:23.222Z,99.99
2023-04-30T02:06:24.467Z,99.99
2023-04-30T02:07:24.513Z,99.99
2023-04-30T02:08:25.829Z,99.99
2023-04-30T02:09:26.529Z,99.99
2023-04-30T02:10:26.997Z,99.99
2023-04-30T02:11:27.725Z,99.99
2023-04-30T02:12:28.218Z,99.99
2023-04-30T02:13:28.747Z,99.99
2023-04-30T02:14:29.689Z,99.99
2023-04-30T02:15:30.194Z,99.99
2023-04-30T02:16:30.858Z,99.99
2023-04-30T02:17:30.957Z,99.99
2023-04-30T02:18:31.097Z,99.99
2023-04-30T02:19:32.024Z,99.99
2023-04-30T02:20:32.403Z,99.99
2023-04-30T02:21:32.978Z,99.99
2023-04-30T02:22:33.107Z,99.99
2023-04-30T02:23:33.653Z,99.99
2023-04-30T02:24:34.350Z,99.99
2023-04-30T02:25:35.015Z,99.99
2023-04-30T02:26:35.726Z,99.99
2023-04-30T02:27:36.036Z,99.99
2023-04-30T02:28:36.569Z,99.99
2023-04-30T02:29:37.366Z,99.99
2023-04-30T02:30:37.529Z,99.99
2023-04-30T02:31:38.332Z,99.99
2023-04-30T02:32:39.185Z,99.99
2023-04-30T02:33:39.301Z,99.99
2023-04-30T02:34:40.023Z,99.99
2023-04-30T02:35:40.504Z,99.99
2023-04-30T02:36:41.053Z,99.99
2023-04-30T02:37:42.149Z,99.99
2023-04-30T02:38:42.896Z,99.99
2023-04-30T02:39:43.825Z,99.99
2023-04-30T02:40:44.005Z,99.99
2023-04-30T02:41:44.501Z,99.99
2023-04-30T02:42:45.283Z,99.99
2023-04-30T02:43:46.236Z,99.99
2023-04-30T02:44:46.961Z,99.99
2023-04-30T02:45:47.530Z,99.99
2023-04-30T02:46:48.423Z,99.99
2023-04-30T02:47:48.801Z,99.99
2023-04-30T02:48:49.671Z,99.99
2023-04-30T02:49:50.404Z,99.99
2023-04-30T02:50:50.710Z,99.99
2023-04-30T02:51:51.094Z,99.99
2023-04-30T02:52:51.994Z,99.99
2023-04-30T02:53:52.527Z,99.99
2023-04-30T02:54:53.236Z,99.99
2023-04-30T02:55:53.751Z,99.99
2023-04-30T02:56:54.235Z,99.99
2023-04-30T02:57:54.595Z,99.99
2023-04-30T02:58:55.380Z,99.99
2023-04-30T02:59:56.479Z,99.99
2023-04-30T03:00:56.811Z,99.99
2023-04-30T03:01:57.740Z,99.99
2023-04-30T03:02:58.538Z,99.99
2023-04-30T03:03:59.275Z,99.99
2023-04-30T03:04:59.824Z,99.99
2023-04-30T03:06:00.768Z,99.99
2023-04-30T03:07:01.504Z,99.99
2023-04-30T03:08:02.398Z,99.99
2023-04-30T03:09:03.120Z,99.99
2023-04-30T03:10:03.817Z,99.99
2023-04-30T03:11:04.384Z,99.99
2023-04-30T03:12:04.854Z,99.99
2023-04-30T03:13:05.369Z,99.99
2023-04-30T03:14:05.316Z,99.99
2023-04-30T03:15:05.928Z,99.99
2023-04-30T03:16:06.954Z,99.99
2023-04-30T03:17:07.308Z,99.99
2023-04-30T03:18:07.886Z,99.99
2023-04-30T03:19:08.652Z,99.99
2023-04-30T03:20:08.945Z,99.99
2023-04-30T03:21:09.130Z,99.99
2023-04-30T03:22:09.766Z,99.99
2023-04-30T03:23:10.255Z,99.99
2023-04-30T03:24:10.765Z,99.99
2023-04-30T03:25:11.471Z,99.99
2023-04-30T03:26:12.364Z,99.99
2023-04-30T03:27:12.919Z,99.99
2023-04-30T03:28:13.390Z,99.99
2023-04-30T03:29:14.140Z,99.99
2023-04-30T03:30:14.866Z,99.99
2023-04-30T03:31:15.390Z,99.99
2023-04-30T03:32:16.159Z,99.99
2023-04-30T03:33:17.099Z,99.99
2023-04-30T03:34:17.055Z,99.99
2023-04-30T03:35:17.543Z,99.99
2023-04-30T03:36:18.256Z,99.99
2023-04-30T03:37:19.013Z,99.99
2023-04-30T03:38:19.692Z,99.99
2023-04-30T03:39:20.218Z,99.99
2023-04-30T03:40:20.899Z,99.99
2023-04-30T03:41:21.174Z,99.99
2023-04-30T03:42:21.670Z,99.99
2023-04-30T03:43:22.345Z,99.99
2023-04-30T03:44:23.264Z,99.99
2023-04-30T03:45:24.184Z,99.99
2023-04-30T03:46:24.775Z,99.99
2023-04-30T03:47:25.461Z,99.99
2023-04-30T03:48:26.025Z,99.99
2023-04-30T03:49:26.927Z,99.99
2023-04-30T03:50:27.454Z,99.99
2023-04-30T03:51:28.466Z,99.99
2023-04-30T03:52:29.432Z,99.99
2023-04-30T03:53:30.155Z,99.99
2023-04-30T03:54:31.302Z,99.99
2023-04-30T03:55:32.013Z,99.99
2023-04-30T03:56:32.733Z,99.99
2023-04-30T03:57:33.097Z,99.99
2023-04-30T03:58:33.607Z,99.99
2023-04-30T03:59:34.320Z,99.99
2023-04-30T04:00:34.637Z,99.99
2023-04-30T04:01:35.274Z,99.99
2023-04-30T04:02:36.115Z,99.99
2023-04-30T04:03:36.165Z,99.99
2023-04-30T04:04:36.623Z,99.99
2023-04-30T04:05:37.124Z,99.99
2023-04-30T04:06:37.856Z,99.99
2023-04-30T04:07:38.373Z,99.99
2023-04-30T04:08:38.862Z,99.99
2023-04-30T04:09:39.640Z,99.99
2023-04-30T04:10:39.897Z,99.99
2023-04-30T04:11:40.327Z,99.99
2023-04-30T04:12:41.064Z,99.99
2023-04-30T04:13:41.809Z,99.99
2023-04-30T04:14:42.598Z,99.99
2023-04-30T04:15:43.362Z,99.99
2023-04-30T04:16:43.825Z,99.99
2023-04-30T04:17:44.472Z,99.99
2023-04-30T04:18:44.526Z,99.99
2023-04-30T04:19:45.243Z,99.99
2023-04-30T04:20:46.188Z,99.99
2023-04-30T04:21:46.604Z,99.99
2023-04-30T04:22:47.101Z,99.99
2023-04-30T04:23:47.806Z,99.99
2023-04-30T04:24:48.326Z,99.99
2023-04-30T04:25:49.094Z,99.99
2023-04-30T04:26:52.706Z,99.99
2023-04-30T04:27:51.186Z,99.99
2023-04-30T04:28:51.676Z,99.99
2023-04-30T04:29:52.684Z,99.99
2023-04-30T04:30:52.547Z,99.99
2023-04-30T04:31:53.693Z,99.99
2023-04-30T04:32:54.372Z,99.99
2023-04-30T04:33:54.617Z,99.99
2023-04-30T04:34:55.581Z,99.99
2023-04-30T04:35:56.317Z,99.99
2023-04-30T04:36:57.198Z,99.99
2023-04-30T04:37:57.502Z,99.99
2023-04-30T04:38:57.994Z,99.99
2023-04-30T04:39:59.177Z,99.99
2023-04-30T04:40:59.075Z,99.99
2023-04-30T04:41:59.784Z,99.99
2023-04-30T04:43:00.472Z,99.99
2023-04-30T04:44:01.184Z,99.99
2023-04-30T04:45:02.099Z,99.99
2023-04-30T04:46:03.060Z,99.99
2023-04-30T04:47:03.090Z,99.99
2023-04-30T04:48:04.001Z,99.99
2023-04-30T04:49:04.893Z,99.99
2023-04-30T04:50:05.802Z,99.99
2023-04-30T04:51:06.098Z,99.99
2023-04-30T04:52:07.140Z,99.99
2023-04-30T04:53:07.671Z,99.99
2023-04-30T04:54:08.148Z,99.99
2023-04-30T04:55:08.708Z,99.99
2023-04-30T04:56:09.638Z,99.99
2023-04-30T04:57:10.349Z,99.99
2023-04-30T04:58:11.290Z,99.99
2023-04-30T04:59:11.787Z,99.99
2023-04-30T05:00:12.472Z,99.99
2023-04-30T05:01:13.021Z,99.99
2023-04-30T05:02:14.138Z,99.99
2023-04-30T05:03:14.624Z,99.99
2023-04-30T05:04:14.590Z,99.99
2023-04-30T05:05:14.454Z,99.99
2023-04-30T05:06:15.740Z,99.99
2023-04-30T05:07:15.780Z,99.99
2023-04-30T05:08:16.103Z,99.99
2023-04-30T05:09:16.791Z,99.99
2023-04-30T05:10:17.562Z,99.99
2023-04-30T05:11:20.776Z,99.99
2023-04-30T05:13:18.912Z,99.99
2023-04-30T05:14:19.189Z,99.99
2023-04-30T05:15:20.151Z,99.99
2023-04-30T05:16:20.541Z,99.99
2023-04-30T05:17:20.651Z,99.99
2023-04-30T05:18:21.523Z,99.99
2023-04-30T05:19:22.245Z,99.99
2023-04-30T05:20:23.197Z,99.99
2023-04-30T05:21:23.729Z,99.99
2023-04-30T05:22:24.539Z,99.99
2023-04-30T05:23:25.276Z,99.99
2023-04-30T05:24:25.760Z,99.99
2023-04-30T05:25:26.770Z,99.99
2023-04-30T05:26:27.267Z,99.99
2023-04-30T05:27:27.785Z,99.99
2023-04-30T05:28:28.176Z,99.99
2023-04-30T05:29:28.662Z,99.99
2023-04-30T05:30:29.610Z,99.99
2023-04-30T05:31:30.413Z,99.99
2023-04-30T05:32:31.351Z,99.99
2023-04-30T05:33:31.505Z,99.99
2023-04-30T05:34:32.523Z,99.99
2023-04-30T05:35:33.054Z,99.99
2023-04-30T05:36:33.513Z,99.99
2023-04-30T05:37:34.309Z,99.99
2023-04-30T05:38:34.641Z,99.99
2023-04-30T05:39:35.749Z,99.99
2023-04-30T05:40:36.506Z,99.99
2023-04-30T05:41:36.743Z,99.99
2023-04-30T05:42:37.375Z,99.99
2023-04-30T05:43:38.084Z,99.99
2023-04-30T05:44:38.944Z,99.99
2023-04-30T05:45:39.966Z,99.99
2023-04-30T05:46:40.566Z,99.99
2023-04-30T05:47:40.899Z,99.99
2023-04-30T05:48:41.817Z,99.99
2023-04-30T05:49:42.160Z,99.99
2023-04-30T05:50:43.186Z,99.99
2023-04-30T05:51:43.748Z,99.99
2023-04-30T05:52:44.648Z,99.99
2023-04-30T05:53:45.598Z,99.99
2023-04-30T05:54:47.326Z,99.99
2023-04-30T05:55:46.430Z,99.99
2023-04-30T05:56:47.203Z,99.99
2023-04-30T05:57:47.883Z,99.99
2023-04-30T05:58:48.379Z,99.99
2023-04-30T05:59:48.882Z,99.99
2023-04-30T06:00:49.048Z,99.99
2023-04-30T06:01:49.816Z,99.99
2023-04-30T06:02:50.890Z,99.99
2023-04-30T06:03:51.613Z,99.99
2023-04-30T06:04:51.953Z,99.99
2023-04-30T06:05:53.109Z,99.99
2023-04-30T06:06:53.668Z,99.99
2023-04-30T06:07:54.013Z,99.99
2023-04-30T06:08:54.734Z,99.99
2023-04-30T06:09:55.444Z,99.99
2023-04-30T06:10:56.358Z,99.99
2023-04-30T06:11:57.249Z,99.99
2023-04-30T06:12:57.694Z,99.99
2023-04-30T06:13:58.631Z,99.99
2023-04-30T06:14:59.533Z,99.99
2023-04-30T06:16:00.096Z,99.99
2023-04-30T06:17:01.184Z,99.99
2023-04-30T06:18:01.687Z,99.99
2023-04-30T06:19:02.472Z,99.99
2023-04-30T06:20:03.070Z,99.99
2023-04-30T06:21:03.625Z,99.99
2023-04-30T06:22:04.329Z,99.99
2023-04-30T06:23:04.951Z,99.99
2023-04-30T06:24:05.506Z,99.99
2023-04-30T06:25:06.449Z,99.99
2023-04-30T06:26:07.393Z,99.99
2023-04-30T06:27:07.912Z,99.99
2023-04-30T06:28:08.664Z,99.99
2023-04-30T06:29:09.777Z,99.99
2023-04-30T06:30:10.288Z,99.99
2023-04-30T06:31:11.073Z,99.99
2023-04-30T06:32:13.701Z,99.99
2023-04-30T06:34:13.159Z,99.99
2023-04-30T06:35:13.650Z,99.99
2023-04-30T06:36:14.390Z,99.99
2023-04-30T06:37:15.296Z,99.99
2023-04-30T06:38:15.818Z,99.99
2023-04-30T06:39:16.585Z,99.99
2023-04-30T06:40:17.339Z,99.99
2023-04-30T06:41:18.097Z,99.99
2023-04-30T06:42:18.569Z,99.99
2023-04-30T06:43:18.989Z,99.99
2023-04-30T06:44:19.925Z,99.99
2023-04-30T06:45:20.874Z,99.99
2023-04-30T06:46:21.630Z,99.99
2023-04-30T06:47:21.785Z,99.99
2023-04-30T06:48:22.615Z,99.99
2023-04-30T06:49:23.508Z,99.99
2023-04-30T06:50:24.299Z,99.99
2023-04-30T06:51:24.881Z,99.99
2023-04-30T06:52:25.556Z,99.99
2023-04-30T06:53:26.608Z,99.99
2023-04-30T06:54:27.552Z,99.99
2023-04-30T06:55:28.269Z,99.99
2023-04-30T06:56:29.211Z,99.99
2023-04-30T06:57:30.119Z,99.99
2023-04-30T06:58:30.816Z,99.99
2023-04-30T06:59:31.337Z,99.99
2023-04-30T07:00:31.835Z,99.99
2023-04-30T07:01:32.864Z,99.99
2023-04-30T07:02:33.793Z,99.99
2023-04-30T07:03:34.751Z,99.99
2023-04-30T07:04:35.401Z,99.99
2023-04-30T07:05:36.321Z,99.99
2023-04-30T07:06:37.194Z,99.99
2023-04-30T07:07:37.381Z,99.99
2023-04-30T07:08:38.273Z,99.99
2023-04-30T07:09:38.575Z,99.99
2023-04-30T07:10:39.469Z,99.99
2023-04-30T07:11:40.208Z,99.99
2023-04-30T07:12:40.510Z,99.99
2023-04-30T07:13:41.362Z,99.99
2023-04-30T07:14:41.866Z,99.99
2023-04-30T07:15:42.831Z,99.99
2023-04-30T07:16:43.493Z,99.99
2023-04-30T07:17:44.145Z,99.99
2023-04-30T07:18:45.133Z,99.99
2023-04-30T07:19:45.812Z,99.99
2023-04-30T07:20:46.773Z,99.99
2023-04-30T07:21:47.318Z,99.99
2023-04-30T07:22:47.405Z,99.99
2023-04-30T07:23:47.942Z,99.99
2023-04-30T07:24:48.084Z,99.99
2023-04-30T07:25:48.406Z,99.99
2023-04-30T07:26:48.925Z,99.99
2023-04-30T07:27:49.424Z,99.99
2023-04-30T07:28:49.929Z,99.99
2023-04-30T07:29:50.320Z,99.99
2023-04-30T07:30:51.219Z,99.99
2023-04-30T07:31:51.599Z,99.99
2023-04-30T07:32:52.842Z,99.99
2023-04-30T07:33:53.683Z,99.99
2023-04-30T07:34:54.067Z,99.99
2023-04-30T07:35:55.065Z,99.99
2023-04-30T07:36:55.808Z,99.99
2023-04-30T07:37:56.502Z,99.99
2023-04-30T07:38:57.455Z,99.99
2023-04-30T07:39:58.115Z,99.99
2023-04-30T07:40:58.594Z,99.99
2023-04-30T07:41:59.343Z,99.99
2023-04-30T07:43:00.116Z,99.99
2023-04-30T07:44:00.540Z,99.99
2023-04-30T07:45:01.130Z,99.99
2023-04-30T07:46:01.508Z,99.99
2023-04-30T07:47:02.039Z,99.99
2023-04-30T07:48:02.862Z,99.99
2023-04-30T07:49:03.758Z,99.99
2023-04-30T07:50:04.870Z,99.99
2023-04-30T07:51:05.419Z,99.99
2023-04-30T07:52:06.350Z,99.99
2023-04-30T07:53:06.908Z,99.99
2023-04-30T07:54:07.204Z,99.99
2023-04-30T07:55:07.548Z,99.99
2023-04-30T07:56:08.690Z,99.99
2023-04-30T07:57:09.048Z,99.99
2023-04-30T07:58:09.582Z,99.99
2023-04-30T07:59:09.692Z,99.99
2023-04-30T08:00:10.442Z,99.99
2023-04-30T08:01:10.995Z,99.99
2023-04-30T08:02:11.032Z,99.99
2023-04-30T08:03:11.666Z,99.99
2023-04-30T08:04:12.655Z,99.99
2023-04-30T08:05:13.033Z,99.99
2023-04-30T08:06:13.644Z,99.99
2023-04-30T08:07:13.759Z,99.99
2023-04-30T08:08:14.432Z,99.99
2023-04-30T08:09:14.943Z,99.99
2023-04-30T08:10:15.900Z,99.99
2023-04-30T08:11:16.763Z,99.99
2023-04-30T08:12:17.278Z,99.99
2023-04-30T08:13:17.800Z,99.99
2023-04-30T08:14:18.017Z,99.99
2023-04-30T08:15:18.741Z,99.99
2023-04-30T08:16:19.728Z,99.99
2023-04-30T08:17:20.504Z,99.99
2023-04-30T08:18:21.760Z,99.99
2023-04-30T08:19:21.475Z,99.99
2023-04-30T08:20:22.158Z,99.99
2023-04-30T08:21:22.672Z,99.99
2023-04-30T08:22:23.404Z,99.99
2023-04-30T08:23:23.948Z,99.99
2023-04-30T08:24:24.428Z,99.99
2023-04-30T08:25:25.241Z,99.99
2023-04-30T08:26:26.003Z,99.99
2023-04-30T08:27:26.528Z,99.99
2023-04-30T08:28:27.375Z,99.99
2023-04-30T08:29:28.338Z,99.99
2023-04-30T08:30:29.005Z,99.99
2023-04-30T08:31:29.611Z,99.99
2023-04-30T08:32:30.690Z,99.99
2023-04-30T08:33:31.345Z,99.99
2023-04-30T08:34:31.658Z,99.99
2023-04-30T08:35:32.350Z,99.99
2023-04-30T08:36:32.856Z,99.99
2023-04-30T08:37:33.599Z,99.99
2023-04-30T08:38:34.348Z,99.99
2023-04-30T08:39:35.046Z,99.99
2023-04-30T08:40:54.703Z,99.99
2023-04-30T08:41:36.618Z,99.99
2023-04-30T08:42:37.102Z,99.99
2023-04-30T08:43:37.615Z,99.99
2023-04-30T08:44:38.715Z,99.99
2023-04-30T08:45:39.493Z,99.99
2023-04-30T08:46:40.566Z,99.99
2023-04-30T08:47:41.259Z,99.99
2023-04-30T08:48:42.231Z,99.99
2023-04-30T08:49:42.932Z,99.99
2023-04-30T08:50:43.677Z,99.99
2023-04-30T08:51:43.833Z,99.99
2023-04-30T08:52:44.857Z,99.99
2023-04-30T08:53:45.591Z,99.99
2023-04-30T08:54:46.294Z,99.99
2023-04-30T08:55:46.649Z,99.99
2023-04-30T08:56:46.394Z,99.99
2023-04-30T08:57:46.766Z,99.99
2023-04-30T08:58:46.873Z,99.99
2023-04-30T08:59:47.577Z,99.99
2023-04-30T09:00:48.509Z,99.99
2023-04-30T09:01:51.308Z,99.99
2023-04-30T09:02:49.724Z,99.99
2023-04-30T09:03:50.086Z,99.99
2023-04-30T09:05:50.355Z,99.53
2023-04-30T09:06:51.187Z,99.72
2023-04-30T09:08:08.483Z,96.22
2023-04-30T09:08:52.803Z,94.49
2023-04-30T09:09:53.635Z,92.91
2023-04-30T09:10:53.552Z,92.48
2023-04-30T09:11:54.079Z,90.22
2023-04-30T09:12:55.014Z,85.36
2023-04-30T09:13:55.956Z,85.11
2023-04-30T09:14:56.225Z,85.27
2023-04-30T09:15:56.567Z,85.71
2023-04-30T09:16:57.496Z,86.76
2023-04-30T09:17:58.458Z,86.52
2023-04-30T09:18:59.324Z,85.18
2023-04-30T09:20:00.271Z,84.95
2023-04-30T09:21:01.258Z,83.89
2023-04-30T09:22:01.961Z,83.75
2023-04-30T09:23:02.469Z,84.52
2023-04-30T09:24:02.608Z,86.3
2023-04-30T09:25:03.239Z,87.64
2023-04-30T09:26:03.550Z,88.41
2023-04-30T09:27:04.101Z,88.84
2023-04-30T09:28:05.104Z,89.32
2023-04-30T09:29:05.628Z,90
2023-04-30T09:30:06.328Z,89.9
2023-04-30T09:31:06.613Z,90.05
2023-04-30T09:32:07.286Z,90.43
2023-04-30T09:33:10.861Z,90.23
2023-04-30T09:34:09.351Z,89.66
2023-04-30T09:35:10.089Z,90.14
2023-04-30T09:36:10.790Z,90.14
2023-04-30T09:37:11.496Z,90.14
2023-04-30T09:38:12.332Z,90.58
2023-04-30T09:39:16.351Z,91.19
2023-04-30T09:40:14.310Z,92.06
2023-04-30T09:41:14.813Z,91.1
2023-04-30T09:42:15.549Z,90.43
2023-04-30T09:43:16.734Z,90.58
2023-04-30T09:44:16.455Z,89.76
2023-04-30T09:45:16.647Z,90.19
2023-04-30T09:46:16.962Z,90.53
2023-04-30T09:47:18.012Z,90.14
2023-04-30T09:48:22.567Z,90.33
2023-04-30T09:49:17.998Z,90.33
2023-04-30T09:50:18.488Z,89.95
2023-04-30T09:51:19.213Z,89.72
2023-04-30T09:52:19.721Z,89.9
2023-04-30T09:53:20.451Z,90.58
2023-04-30T09:54:21.037Z,90.58
2023-04-30T09:55:21.539Z,91.3
2023-04-30T09:56:22.039Z,91.34
2023-04-30T09:57:22.788Z,91.49
2023-04-30T09:58:23.532Z,91.87
2023-04-30T09:59:24.029Z,91.49
2023-04-30T10:00:24.939Z,92.16
2023-04-30T10:01:25.507Z,92.44
2023-04-30T10:02:25.875Z,92.35
2023-04-30T10:03:26.672Z,92.25
2023-04-30T10:04:27.796Z,91.39
2023-04-30T10:05:28.579Z,91.3
2023-04-30T10:06:29.464Z,91.87
2023-04-30T10:07:29.720Z,92.44
2023-04-30T10:08:30.252Z,93.3
2023-04-30T10:09:30.952Z,92.44
2023-04-30T10:10:31.651Z,93.02
2023-04-30T10:11:32.343Z,93.98
2023-04-30T10:12:32.716Z,93.88
2023-04-30T10:13:33.256Z,92.92
2023-04-30T10:14:33.619Z,93.21
2023-04-30T10:15:34.217Z,93.21
2023-04-30T10:16:35.292Z,92.25
2023-04-30T10:17:35.689Z,91.58
2023-04-30T10:18:35.779Z,92.16
2023-04-30T10:19:36.305Z,91.87
2023-04-30T10:20:37.031Z,91.87
2023-04-30T10:21:37.341Z,92.54
2023-04-30T10:22:37.861Z,91.34
2023-04-30T10:23:38.615Z,90.72
2023-04-30T10:24:39.514Z,91.97
2023-04-30T10:25:40.112Z,92.25
2023-04-30T10:26:40.607Z,91.68
2023-04-30T10:27:41.173Z,91.77
2023-04-30T10:28:42.122Z,91.77
2023-04-30T10:29:42.413Z,91.11
2023-04-30T10:30:43.221Z,91.49
2023-04-30T10:31:44.095Z,92.06
2023-04-30T10:32:44.928Z,92.16
2023-04-30T10:33:44.924Z,92.63
2023-04-30T10:34:45.641Z,93.21
2023-04-30T10:35:46.175Z,92.73
2023-04-30T10:36:46.898Z,91.53
2023-04-30T10:37:46.973Z,92.4
2023-04-30T10:38:48.551Z,91.72
2023-04-30T10:39:48.112Z,92.3
2023-04-30T10:40:48.926Z,92.21
2023-04-30T10:41:49.433Z,92.11
2023-04-30T10:42:50.168Z,92.3
2023-04-30T10:43:51.303Z,91.63
2023-04-30T10:44:52.182Z,90.19
2023-04-30T10:45:52.828Z,90.67
2023-04-30T10:46:53.081Z,91.25
2023-04-30T10:47:53.677Z,91.34
2023-04-30T10:48:54.226Z,90.67
2023-04-30T10:49:55.152Z,89.09
2023-04-30T10:50:55.295Z,89.09
2023-04-30T10:51:55.591Z,87.55
2023-04-30T10:52:56.107Z,86.79
2023-04-30T10:53:56.898Z,86.31
2023-04-30T10:54:57.398Z,86.02
2023-04-30T10:55:58.663Z,85.54
2023-04-30T10:56:59.375Z,85.54
2023-04-30T10:57:59.915Z,86.12
2023-04-30T10:59:00.860Z,86.16
2023-04-30T11:00:02.000Z,87.88
2023-04-30T11:01:02.596Z,85.78
2023-04-30T11:02:02.966Z,85.06
2023-04-30T11:03:03.833Z,85.74
2023-04-30T11:04:04.476Z,85.54
2023-04-30T11:05:04.958Z,85.93
2023-04-30T11:06:05.768Z,86.88
2023-04-30T11:07:06.033Z,87.27
2023-04-30T11:08:06.750Z,86.69
2023-04-30T11:09:07.099Z,87.65
2023-04-30T11:10:08.212Z,87.55
2023-04-30T11:11:08.723Z,87.08
2023-04-30T11:12:09.445Z,87.08
2023-04-30T11:13:10.202Z,87.21
2023-04-30T11:14:10.957Z,86.64
2023-04-30T11:15:11.592Z,86.54
2023-04-30T11:16:12.200Z,85.68
2023-04-30T11:17:12.111Z,85.01
2023-04-30T11:18:12.796Z,84.38
2023-04-30T11:19:16.726Z,84.15
2023-04-30T11:20:14.762Z,85.01
2023-04-30T11:21:15.086Z,85.01
2023-04-30T11:22:15.608Z,86.16
2023-04-30T11:23:22.040Z,85.44
2023-04-30T11:24:16.837Z,85.44
2023-04-30T11:25:17.131Z,85.58
2023-04-30T11:26:17.934Z,84.91
2023-04-30T11:27:18.655Z,83.47
2023-04-30T11:28:19.589Z,82.03
2023-04-30T11:29:20.629Z,82.7
2023-04-30T11:30:20.943Z,83.12
2023-04-30T11:31:21.786Z,82.16
2023-04-30T11:32:22.472Z,80.53
2023-04-30T11:33:23.107Z,80.76
2023-04-30T11:34:23.913Z,82.3
2023-04-30T11:35:24.875Z,82.59
2023-04-30T11:36:25.307Z,79.65
2023-04-30T11:37:25.820Z,79.27
2023-04-30T11:38:26.381Z,80.22
2023-04-30T11:39:26.778Z,80.07
2023-04-30T11:40:27.152Z,77.19
2023-04-30T11:41:28.453Z,76.52
2023-04-30T11:42:29.170Z,74.79
2023-04-30T11:43:30.600Z,74.3
2023-04-30T11:44:30.797Z,74.11
2023-04-30T11:45:31.502Z,74.5
2023-04-30T11:46:32.056Z,74.69
2023-04-30T11:47:32.850Z,76
2023-04-30T11:48:33.536Z,76.14
2023-04-30T11:49:34.499Z,76.19
2023-04-30T11:50:35.239Z,77.25
2023-04-30T11:51:36.235Z,76.29
2023-04-30T11:52:36.927Z,75.94
2023-04-30T11:53:37.457Z,76.29
2023-04-30T11:54:37.758Z,75.32
2023-04-30T11:55:38.663Z,76.48
2023-04-30T11:56:41.305Z,76.96
2023-04-30T11:57:40.166Z,76.86
2023-04-30T11:58:40.333Z,77.53
2023-04-30T11:59:40.891Z,78.65
2023-04-30T12:00:41.215Z,79.86
2023-04-30T12:01:42.200Z,80.34
2023-04-30T12:02:43.535Z,81.59
2023-04-30T12:03:43.313Z,81.59
2023-04-30T12:04:43.841Z,81.1
2023-04-30T12:05:44.601Z,81.1
2023-04-30T12:06:45.261Z,81.78
2023-04-30T12:07:45.976Z,82.64
2023-04-30T12:08:46.675Z,81.59
2023-04-30T12:09:47.272Z,80.34
2023-04-30T12:10:47.909Z,81.4
2023-04-30T12:11:48.423Z,80.34
2023-04-30T12:12:50.671Z,81.3
2023-04-30T12:13:49.241Z,80.43
2023-04-30T12:14:49.776Z,80.34
2023-04-30T12:15:50.481Z,82.03
2023-04-30T12:16:51.448Z,80.87
2023-04-30T12:17:51.970Z,81.16
2023-04-30T12:18:53.193Z,81.64
2023-04-30T12:19:53.292Z,81.54
2023-04-30T12:20:53.519Z,81.35
2023-04-30T12:21:54.019Z,81.64
2023-04-30T12:22:54.971Z,82.31
2023-04-30T12:23:55.471Z,81.84
2023-04-30T12:24:56.517Z,81.74
2023-04-30T12:25:57.339Z,82.89
2023-04-30T12:26:57.670Z,83.94
2023-04-30T12:27:58.426Z,84.23
2023-04-30T12:28:58.546Z,83.94
2023-04-30T12:29:58.983Z,84.04
2023-04-30T12:30:59.314Z,83.65
2023-04-30T12:32:00.529Z,83.94
2023-04-30T12:33:00.930Z,84.77
2023-04-30T12:34:00.813Z,84.19
2023-04-30T12:35:01.711Z,84
2023-04-30T12:36:01.847Z,85.05
2023-04-30T12:37:02.349Z,84.86
2023-04-30T12:38:03.063Z,84.67
2023-04-30T12:39:03.773Z,85.25
2023-04-30T12:40:04.288Z,84.86
2023-04-30T12:41:06.546Z,84.77
2023-04-30T12:42:06.059Z,85.05
2023-04-30T12:43:06.941Z,84.95
2023-04-30T12:44:07.631Z,85.39
2023-04-30T12:45:08.297Z,84.63
2023-04-30T12:46:09.097Z,85.11
2023-04-30T12:47:10.078Z,85.3
2023-04-30T12:48:10.521Z,85.3
2023-04-30T12:49:11.488Z,85.58
2023-04-30T12:50:12.347Z,86.16
2023-04-30T12:51:13.102Z,85.58
2023-04-30T12:52:14.065Z,85.49
2023-04-30T12:53:14.168Z,85.68
2023-04-30T12:54:14.732Z,86.25
2023-04-30T12:55:15.850Z,86.16
2023-04-30T12:56:16.589Z,86.74
2023-04-30T12:57:17.096Z,86.83
2023-04-30T12:58:18.024Z,86.83
2023-04-30T12:59:18.551Z,87.12
2023-04-30T13:00:19.273Z,86.54
2023-04-30T13:01:20.258Z,86.35
2023-04-30T13:02:20.405Z,85.97
2023-04-30T13:03:21.810Z,86.54
2023-04-30T13:04:22.611Z,86.74